Time;durP1;ratioP1;P1;durP2;ratioP2;P2;SDS_P1;SDS_P2;PMS_P1;PMS_P2;Temp;Humidity;BMP_temperature;BMP_pressure;BME280_temperature;BME280_humidity;BME280_pressure;Samples;Min_cycle;Max_cycle;Signal;HPM_P1;HPM_P2
2021/12/07 00:01:34;;;;;;;16.88;9.45;;;22.80;55.60;;;;;;5097471;28;20132;-69
2021/12/07 00:04:03;;;;;;;17.85;9.43;;;22.70;55.70;;;;;;5097084;28;20209;-69
2021/12/07 00:06:29;;;;;;;11.75;8.65;;;22.70;55.70;;;;;;5097436;28;20036;-68
2021/12/07 00:08:56;;;;;;;15.10;8.05;;;22.80;55.70;;;;;;5097429;28;20060;-69
2021/12/07 00:11:28;;;;;;;12.48;8.18;;;22.60;55.80;;;;;;5097082;28;20043;-69
2021/12/07 00:13:57;;;;;;;15.55;9.07;;;22.50;55.90;;;;;;5096436;28;20060;-69
2021/12/07 00:16:25;;;;;;;14.38;7.82;;;22.70;56.00;;;;;;5097245;28;20052;-69
2021/12/07 00:18:52;;;;;;;13.38;7.95;;;22.70;55.90;;;;;;5097090;28;20058;-69
2021/12/07 00:21:19;;;;;;;15.85;8.82;;;22.60;55.80;;;;;;5097303;28;20047;-69
2021/12/07 00:23:48;;;;;;;12.40;7.90;;;22.60;55.90;;;;;;5097107;28;20072;-69
2021/12/07 00:26:15;;;;;;;16.77;9.10;;;22.60;56.00;;;;;;5096769;28;20041;-69
2021/12/07 00:28:42;;;;;;;15.88;9.60;;;22.40;55.90;;;;;;5097160;28;20067;-69
2021/12/07 00:31:13;;;;;;;13.63;8.40;;;22.50;56.10;;;;;;5079791;28;20043;-69
2021/12/07 00:33:55;;;;;;;18.98;9.70;;;22.30;56.00;;;;;;5097171;28;20052;-68
2021/12/07 00:36:21;;;;;;;15.15;8.70;;;22.30;56.10;;;;;;5096950;28;20040;-68
2021/12/07 00:38:47;;;;;;;16.92;8.50;;;22.40;56.10;;;;;;5096765;28;20474;-69
2021/12/07 00:41:13;;;;;;;15.10;9.05;;;22.40;56.10;;;;;;5096996;28;20056;-68
2021/12/07 00:43:41;;;;;;;13.98;8.60;;;22.50;56.10;;;;;;5079495;28;20047;-68
2021/12/07 00:46:08;;;;;;;15.52;8.30;;;22.40;55.80;;;;;;5096657;28;20056;-66
2021/12/07 00:48:35;;;;;;;17.50;9.15;;;22.50;55.80;;;;;;5096957;28;20178;-67
2021/12/07 00:51:01;;;;;;;14.52;8.77;;;22.50;55.70;;;;;;5096940;28;20100;-67
2021/12/07 00:53:28;;;;;;;16.75;8.63;;;22.50;55.60;;;;;;5096728;28;20540;-67
2021/12/07 00:55:58;;;;;;;13.73;7.93;;;22.70;55.50;;;;;;5079330;28;20041;-67
2021/12/07 00:58:25;;;;;;;16.52;8.13;;;22.70;55.50;;;;;;5079509;28;20068;-67
2021/12/07 01:01:07;;;;;;;16.42;8.52;;;22.60;55.40;;;;;;5096701;28;20054;-67
2021/12/07 01:03:34;;;;;;;15.15;8.68;;;22.80;55.60;;;;;;5096754;28;20040;-67
2021/12/07 01:25:24;;;;;;;15.68;7.88;;;23.00;55.00;;;;;;5096288;28;20049;-67
2021/12/07 01:27:52;;;;;;;14.63;8.07;;;22.90;55.10;;;;;;5096514;28;20064;-67
2021/12/07 01:30:23;;;;;;;12.40;7.93;;;23.00;55.00;;;;;;5096562;28;20048;-67
2021/12/07 01:41:14;;;;;;;12.80;7.63;;;22.90;55.20;;;;;;5082559;28;20055;-67
2021/12/07 01:52:20;;;;;;;13.70;7.68;;;23.00;54.90;;;;;;5082804;28;20036;-67
2021/12/07 01:59:48;;;;;;;12.85;7.45;;;22.90;54.90;;;;;;5082461;28;20055;-67
2021/12/07 02:02:17;;;;;;;12.25;7.45;;;22.90;54.80;;;;;;5099810;28;20112;-67
2021/12/07 02:04:45;;;;;;;12.15;7.43;;;22.90;54.70;;;;;;5082430;28;20039;-67
2021/12/07 02:07:15;;;;;;;13.60;7.07;;;22.80;54.70;;;;;;5082574;28;20044;-69
2021/12/07 02:09:49;;;;;;;15.32;8.02;;;22.80;54.80;;;;;;5082346;28;20110;-69
2021/12/07 02:12:15;;;;;;;15.65;8.40;;;22.80;54.80;;;;;;5099386;28;20045;-69
2021/12/07 02:14:43;;;;;;;16.20;8.63;;;22.80;54.80;;;;;;5082178;28;20056;-69
2021/12/07 02:17:13;;;;;;;16.15;8.45;;;22.70;54.90;;;;;;5099674;28;20104;-69
2021/12/07 02:19:41;;;;;;;14.15;7.65;;;22.70;54.80;;;;;;5095761;28;20048;-68
2021/12/07 02:22:09;;;;;;;14.85;8.45;;;22.80;54.70;;;;;;5082238;28;20048;-69
2021/12/07 02:24:41;;;;;;;15.02;8.15;;;22.80;54.90;;;;;;5081776;28;20072;-68
2021/12/07 02:27:07;;;;;;;17.13;8.50;;;22.80;54.80;;;;;;5099600;28;20071;-68
2021/12/07 02:29:34;;;;;;;15.75;8.18;;;22.80;54.70;;;;;;5082125;28;20127;-68
2021/12/07 02:32:02;;;;;;;14.43;8.98;;;22.90;54.70;;;;;;5099245;28;20104;-68
2021/12/07 02:34:30;;;;;;;20.35;8.88;;;22.90;54.80;;;;;;5081991;28;20064;-69
2021/12/07 02:36:59;;;;;;;17.58;9.95;;;22.90;54.70;;;;;;5081891;28;20059;-68
2021/12/07 02:39:34;;;;;;;15.65;8.23;;;22.90;54.60;;;;;;5081873;28;20044;-69
2021/12/07 02:42:04;;;;;;;18.85;9.82;;;23.00;54.70;;;;;;5081968;28;20108;-69
2021/12/07 02:44:33;;;;;;;14.73;8.48;;;22.90;54.50;;;;;;5081509;28;20058;-69
2021/12/07 02:47:01;;;;;;;16.35;9.00;;;23.00;54.50;;;;;;5081706;28;20040;-68
2021/12/07 02:49:28;;;;;;;18.70;10.23;;;22.80;54.40;;;;;;5081877;28;20043;-69
2021/12/07 02:51:55;;;;;;;16.80;9.25;;;22.90;54.40;;;;;;5097800;28;20044;-69
2021/12/07 02:54:22;;;;;;;22.85;10.65;;;22.80;54.40;;;;;;5081625;28;20048;-68
2021/12/07 02:56:51;;;;;;;26.50;9.90;;;22.80;54.60;;;;;;5081481;28;20123;-68
2021/12/07 02:59:18;;;;;;;18.90;10.27;;;22.70;54.70;;;;;;5081426;28;20112;-68
2021/12/07 03:01:52;;;;;;;20.38;9.02;;;22.70;54.50;;;;;;5098909;28;20435;-69
2021/12/07 03:04:24;;;;;;;20.23;9.70;;;22.70;54.60;;;;;;5098767;28;20056;-68
2021/12/07 03:07:17;;;;;;;18.20;9.73;;;22.70;54.70;;;;;;5081158;28;20055;-68
2021/12/07 03:26:15;;;;;;;17.67;9.40;;;22.70;54.80;;;;;;5080818;28;20090;-69
2021/12/07 03:28:46;;;;;;;16.05;8.52;;;22.50;54.70;;;;;;5081066;28;20036;-69
2021/12/07 03:31:16;;;;;;;17.13;9.40;;;22.60;54.70;;;;;;5098219;28;20050;-69
2021/12/07 03:33:45;;;;;;;18.92;9.70;;;22.70;54.60;;;;;;5080572;28;20096;-69
2021/12/07 03:36:13;;;;;;;19.30;9.40;;;22.60;54.50;;;;;;5098097;28;20082;-67
2021/12/07 03:38:40;;;;;;;18.60;10.02;;;22.80;54.40;;;;;;5080819;28;20044;-67
2021/12/07 03:41:09;;;;;;;17.17;8.55;;;22.80;54.20;;;;;;5097397;28;20104;-67
2021/12/07 03:43:36;;;;;;;12.55;8.57;;;22.80;54.20;;;;;;5080669;28;20052;-67
2021/12/07 03:46:03;;;;;;;17.13;8.55;;;22.80;54.10;;;;;;5080449;28;20105;-66
2021/12/07 03:48:30;;;;;;;16.55;7.78;;;22.70;54.20;;;;;;5097848;28;20040;-67
2021/12/07 03:50:56;;;;;;;12.98;8.35;;;22.70;54.30;;;;;;5080499;28;20036;-66
2021/12/07 03:53:22;;;;;;;10.70;7.07;;;22.60;54.40;;;;;;5097837;28;20043;-68
2021/12/07 03:55:49;;;;;;;13.35;8.15;;;22.60;54.60;;;;;;5080050;28;20052;-69
2021/12/07 03:58:16;;;;;;;11.35;6.63;;;22.60;54.40;;;;;;5080508;28;20089;-69
2021/12/07 04:00:44;;;;;;;10.07;6.50;;;22.60;54.60;;;;;;5080365;28;20049;-68
2021/12/07 04:03:14;;;;;;;10.35;6.60;;;22.50;54.60;;;;;;5079693;28;20037;-68
2021/12/07 04:05:48;;;;;;;11.75;7.07;;;22.60;54.50;;;;;;5096768;28;20048;-68
2021/12/07 04:08:22;;;;;;;10.57;6.50;;;22.50;54.50;;;;;;5080170;28;20024;-68
2021/12/07 04:10:49;;;;;;;8.32;5.78;;;22.50;54.40;;;;;;5080287;28;20108;-68
2021/12/07 04:13:15;;;;;;;11.18;6.65;;;22.60;54.40;;;;;;5079881;28;20051;-68
2021/12/07 04:15:42;;;;;;;9.73;5.78;;;22.60;54.40;;;;;;5079770;28;20079;-68
2021/12/07 04:18:09;;;;;;;11.55;6.28;;;22.60;54.30;;;;;;5097440;28;20032;-68
2021/12/07 04:20:35;;;;;;;10.45;6.32;;;22.60;54.10;;;;;;5080075;28;20043;-67
2021/12/07 04:23:02;;;;;;;9.70;6.13;;;22.50;54.20;;;;;;5079887;28;20068;-68
2021/12/07 04:25:29;;;;;;;8.25;5.35;;;22.40;54.30;;;;;;5096944;28;20055;-68
2021/12/07 04:27:55;;;;;;;8.95;5.38;;;22.40;54.40;;;;;;5096657;28;20055;-68
2021/12/07 04:30:25;;;;;;;6.35;5.28;;;22.50;54.40;;;;;;5097065;28;20040;-69
2021/12/07 04:32:52;;;;;;;8.82;5.88;;;22.60;54.40;;;;;;5097189;28;20044;-68
2021/12/07 04:35:21;;;;;;;14.50;6.97;;;22.40;54.40;;;;;;5096837;28;20134;-68
2021/12/07 04:37:47;;;;;;;8.50;5.22;;;22.50;54.50;;;;;;5096840;28;20074;-69
2021/12/07 04:40:18;;;;;;;9.32;5.50;;;22.60;54.40;;;;;;5097065;28;20048;-68
2021/12/07 04:42:45;;;;;;;10.10;5.75;;;22.70;54.10;;;;;;5079646;28;20052;-68
2021/12/07 04:45:24;;;;;;;9.60;5.50;;;22.90;53.70;;;;;;5096535;28;20087;-67
2021/12/07 04:58:18;;;;;;;11.32;5.72;;;23.30;53.10;;;;;;5096219;28;20071;-67
2021/12/07 05:00:44;;;;;;;9.00;6.28;;;23.30;53.10;;;;;;5096552;28;20049;-67
2021/12/07 05:03:13;;;;;;;8.13;5.70;;;23.20;53.10;;;;;;5095775;28;20067;-67
2021/12/07 05:05:46;;;;;;;8.95;6.50;;;23.10;53.40;;;;;;5095565;28;20072;-67
2021/12/07 05:08:15;;;;;;;9.07;5.72;;;23.10;56.80;;;;;;5095845;28;20071;-67
2021/12/07 05:11:23;;;;;;;7.70;6.35;;;23.50;58.30;;;;;;5095701;28;20101;-67
2021/12/07 05:13:38;;;;;;;6.95;5.53;;;23.70;60.40;;;;;;5093161;28;20067;-67
2021/12/07 05:23:58;;;;;;;6.57;4.70;;;23.20;56.70;;;;;;5099865;28;20086;-70
2021/12/07 05:40:03;;;;;;;8.23;5.63;;;23.60;49.40;;;;;;5099391;28;20500;-69
2021/12/07 05:42:29;;;;;;;9.30;5.68;;;23.60;48.10;;;;;;5099221;28;20097;-70
2021/12/07 05:44:56;;;;;;;7.80;5.05;;;23.70;47.30;;;;;;5099092;28;20064;-69
2021/12/07 05:47:22;;;;;;;9.10;4.95;;;23.70;46.70;;;;;;5099378;28;20049;-69
2021/12/07 05:49:49;;;;;;;9.02;6.22;;;23.70;47.00;;;;;;5099196;28;20041;-69
2021/12/07 05:52:15;;;;;;;8.00;4.97;;;23.70;47.70;;;;;;5105193;28;20070;-69
2021/12/07 05:54:42;;;;;;;8.65;5.85;;;23.70;48.00;;;;;;5108602;28;20036;-69
2021/12/07 05:57:09;;;;;;;9.63;6.18;;;23.70;48.00;;;;;;5108166;28;20047;-69
2021/12/07 05:59:35;;;;;;;8.57;4.80;;;23.70;48.10;;;;;;5109962;28;20884;-70
2021/12/07 06:02:01;;;;;;;7.38;5.55;;;23.70;47.50;;;;;;5117078;28;20099;-70
2021/12/07 06:04:30;;;;;;;11.18;6.03;;;23.80;52.70;;;;;;5119339;28;20048;-69
2021/12/07 06:06:57;;;;;;;0.90;0.77;;;23.80;54.00;;;;;;5110378;28;20032;-70
2021/12/07 06:09:24;;;;;;;4.90;3.70;;;24.00;50.40;;;;;;5105057;28;20510;-69
2021/12/07 06:11:50;;;;;;;3.97;2.90;;;24.20;48.80;;;;;;5109358;28;20047;-70
2021/12/07 06:14:21;;;;;;;7.68;5.30;;;24.00;46.40;;;;;;5109534;28;20079;-68
2021/12/07 06:16:48;;;;;;;5.60;4.68;;;23.90;45.80;;;;;;5110155;28;20099;-69
2021/12/07 06:19:14;;;;;;;6.80;5.45;;;24.10;43.10;;;;;;5109107;28;20040;-68
2021/12/07 06:21:41;;;;;;;8.38;6.55;;;24.00;40.60;;;;;;5107210;28;20048;-68
2021/12/07 06:24:07;;;;;;;8.50;3.95;;;24.00;39.70;;;;;;5107657;28;20056;-66
2021/12/07 06:26:33;;;;;;;5.13;3.70;;;23.80;41.90;;;;;;5108312;28;20036;-68
2021/12/07 06:29:00;;;;;;;7.57;4.18;;;23.80;42.70;;;;;;5106480;28;20100;-67
2021/12/07 06:31:26;;;;;;;10.00;6.32;;;23.80;43.00;;;;;;5098011;28;20036;-67
2021/12/07 06:33:52;;;;;;;7.57;5.38;;;23.80;53.20;;;;;;5098520;28;20052;-68
2021/12/07 06:36:18;;;;;;;8.68;5.82;;;23.80;55.20;;;;;;5098376;28;20052;-67
2021/12/07 06:38:47;;;;;;;11.20;6.55;;;23.80;54.00;;;;;;5097697;28;20045;-67
2021/12/07 06:41:13;;;;;;;8.75;5.30;;;23.70;54.00;;;;;;5097650;28;20055;-68
2021/12/07 06:43:41;;;;;;;7.60;5.72;;;23.60;53.70;;;;;;5096110;28;20074;-71
2021/12/07 06:46:07;;;;;;;9.48;6.43;;;23.50;54.10;;;;;;5097284;28;20044;-69
2021/12/07 06:48:33;;;;;;;10.93;6.63;;;23.50;54.70;;;;;;5080530;28;20033;-70
2021/12/07 06:51:01;;;;;;;9.90;6.60;;;23.40;55.30;;;;;;5097908;28;20036;-70
2021/12/07 06:53:29;;;;;;;8.93;6.35;;;23.40;55.70;;;;;;5097967;28;20072;-69
2021/12/07 06:55:56;;;;;;;10.23;6.57;;;23.30;56.30;;;;;;5097991;28;20052;-69
2021/12/07 06:58:23;;;;;;;11.63;6.88;;;23.30;56.60;;;;;;5096516;28;20032;-69
2021/12/07 07:00:49;;;;;;;9.75;6.32;;;23.20;57.00;;;;;;5097981;28;20067;-70
2021/12/07 07:03:15;;;;;;;9.48;6.45;;;23.10;57.20;;;;;;5097917;28;20033;-70
2021/12/07 07:05:41;;;;;;;9.40;6.00;;;23.10;57.60;;;;;;5097203;28;20043;-69
2021/12/07 07:08:07;;;;;;;8.55;6.25;;;23.10;57.80;;;;;;5097891;28;20045;-69
2021/12/07 07:10:33;;;;;;;9.73;6.95;;;23.00;57.90;;;;;;5097747;28;20057;-69
2021/12/07 07:12:59;;;;;;;8.02;6.00;;;23.00;58.20;;;;;;5100259;28;20046;-71
2021/12/07 07:15:26;;;;;;;12.32;7.22;;;23.00;58.10;;;;;;5117978;28;20086;-68
2021/12/07 07:17:52;;;;;;;8.68;6.80;;;22.90;58.40;;;;;;5117847;28;20036;-68
2021/12/07 07:20:18;;;;;;;11.68;6.82;;;23.10;58.70;;;;;;5117652;28;20099;-69
2021/12/07 07:22:45;;;;;;;14.35;7.65;;;22.90;59.00;;;;;;5117833;28;20051;-68
2021/12/07 07:25:12;;;;;;;11.55;7.25;;;22.90;60.10;;;;;;5117645;28;20115;-68
2021/12/07 07:27:39;;;;;;;11.68;6.80;;;22.90;60.40;;;;;;5117796;28;20131;-69
2021/12/07 07:30:07;;;;;;;11.38;7.18;;;22.90;60.90;;;;;;5117306;28;20040;-69
2021/12/07 07:32:33;;;;;;;11.18;6.90;;;22.70;61.20;;;;;;5104188;28;20066;-69
2021/12/07 07:35:00;;;;;;;11.15;7.13;;;22.80;61.20;;;;;;5097311;28;20040;-69
2021/12/07 07:37:26;;;;;;;7.60;4.70;;;22.80;61.10;;;;;;5096859;28;20063;-71
2021/12/07 07:39:52;;;;;;;7.85;6.05;;;22.70;61.70;;;;;;5095952;28;20155;-70
2021/12/07 07:42:18;;;;;;;7.82;5.57;;;22.90;61.00;;;;;;5097249;28;20052;-69
2021/12/07 07:45:11;;;;;;;8.63;5.35;;;23.20;58.60;;;;;;5065601;28;20055;-68
2021/12/07 07:47:38;;;;;;;6.93;5.00;;;23.20;56.00;;;;;;5096948;28;20040;-74
2021/12/07 07:50:06;;;;;;;10.32;5.93;;;23.30;54.00;;;;;;5096785;28;20044;-73
2021/12/07 07:52:32;;;;;;;9.25;6.68;;;23.30;52.60;;;;;;5096579;28;20057;-67
2021/12/07 07:54:58;;;;;;;9.23;6.30;;;23.40;48.20;;;;;;5096701;28;20036;-67
2021/12/07 07:57:25;;;;;;;8.15;5.20;;;23.30;49.30;;;;;;5079525;28;20094;-67
2021/12/07 07:59:51;;;;;;;8.65;6.38;;;23.30;49.20;;;;;;5096855;28;20040;-67
2021/12/07 08:02:17;;;;;;;10.05;5.90;;;23.40;49.40;;;;;;5096699;28;20040;-67
2021/12/07 08:04:43;;;;;;;5.90;4.72;;;23.40;49.50;;;;;;5096659;28;20086;-66
2021/12/07 08:07:09;;;;;;;13.05;7.22;;;23.50;49.80;;;;;;5096059;28;20047;-67
2021/12/07 08:09:36;;;;;;;8.35;5.70;;;23.50;49.70;;;;;;5096293;28;20125;-66
2021/12/07 08:12:04;;;;;;;10.57;6.07;;;23.50;49.50;;;;;;5096684;28;20183;-67
2021/12/07 08:14:32;;;;;;;9.98;6.25;;;23.70;49.90;;;;;;5096180;28;20072;-67
2021/12/07 08:16:58;;;;;;;9.13;6.00;;;23.60;50.30;;;;;;5096509;28;20056;-67
2021/12/07 08:19:24;;;;;;;9.98;6.53;;;23.50;50.20;;;;;;5095820;28;20047;-66
2021/12/07 08:21:50;;;;;;;10.63;7.03;;;23.70;50.30;;;;;;5095859;28;20063;-67
2021/12/07 08:24:17;;;;;;;7.85;5.43;;;23.70;50.60;;;;;;5095973;28;20044;-69
2021/12/07 08:26:43;;;;;;;10.02;6.00;;;23.60;50.80;;;;;;5096231;28;20040;-66
2021/12/07 08:29:09;;;;;;;7.93;6.15;;;23.70;51.30;;;;;;5095542;28;20071;-69
2021/12/07 08:31:35;;;;;;;9.23;5.20;;;23.70;51.60;;;;;;5095944;28;20048;-66
2021/12/07 08:34:01;;;;;;;7.03;4.57;;;23.60;50.60;;;;;;5095858;28;20046;-67
2021/12/07 08:36:28;;;;;;;11.65;6.18;;;23.70;50.00;;;;;;5095790;28;20115;-68
2021/12/07 08:38:55;;;;;;;8.38;5.90;;;23.70;48.80;;;;;;5095892;28;20044;-67
2021/12/07 08:41:21;;;;;;;9.65;7.07;;;23.60;48.10;;;;;;5095132;28;20056;-68
2021/12/07 08:43:47;;;;;;;8.65;5.32;;;23.40;42.80;;;;;;5095009;28;20078;-68
2021/12/07 08:46:15;;;;;;;10.98;7.18;;;23.30;46.10;;;;;;5095480;28;20048;-68
2021/12/07 08:48:42;;;;;;;8.15;6.15;;;23.20;47.40;;;;;;5094863;28;20043;-67
2021/12/07 08:51:09;;;;;;;7.80;4.38;;;23.10;46.00;;;;;;5095420;28;20139;-68
2021/12/07 08:53:43;;;;;;;4.00;2.92;;;23.20;52.20;;;;;;5095659;28;20051;-71
2021/12/07 09:01:39;;;;;;;8.57;4.07;;;24.10;52.40;;;;;;5095757;28;20048;-66
2021/12/07 09:04:06;;;;;;;13.07;5.00;;;24.20;52.40;;;;;;5095685;28;20079;-66
2021/12/07 09:06:32;;;;;;;19.17;5.70;;;24.10;50.60;;;;;;5114459;28;20032;-63
2021/12/07 09:08:58;;;;;;;11.20;6.18;;;24.20;45.50;;;;;;5095989;28;20044;-65
2021/12/07 09:11:25;;;;;;;4.22;3.22;;;24.10;47.70;;;;;;5095158;28;20773;-66
2021/12/07 09:13:52;;;;;;;9.80;4.38;;;24.10;42.10;;;;;;5105644;28;20051;-65
2021/12/07 09:16:20;;;;;;;7.05;3.80;;;24.10;44.60;;;;;;5115814;28;20054;-65
2021/12/07 09:18:46;;;;;;;12.25;4.70;;;24.10;46.30;;;;;;5115703;28;20071;-66
2021/12/07 09:21:13;;;;;;;8.90;4.32;;;24.10;45.60;;;;;;5115753;28;20044;-67
2021/12/07 09:23:39;;;;;;;10.32;3.78;;;24.20;49.10;;;;;;5115928;28;20079;-67
2021/12/07 09:26:06;;;;;;;7.68;3.75;;;24.20;49.20;;;;;;5115809;28;20066;-67
2021/12/07 09:28:32;;;;;;;7.72;3.70;;;24.30;46.70;;;;;;5115829;28;20047;-67
2021/12/07 09:30:58;;;;;;;6.13;4.13;;;24.20;47.50;;;;;;5115978;28;20032;-66
2021/12/07 09:33:27;;;;;;;7.03;3.47;;;24.40;49.50;;;;;;5115783;28;20074;-67
2021/12/07 09:35:54;;;;;;;15.98;7.22;;;24.50;49.70;;;;;;5115925;28;20044;-65
2021/12/07 09:38:22;;;;;;;10.98;6.15;;;24.50;49.10;;;;;;5115725;28;20063;-67
2021/12/07 09:40:50;;;;;;;13.43;5.10;;;24.70;46.30;;;;;;5115916;28;20036;-67
2021/12/07 09:43:17;;;;;;;7.55;5.30;;;24.60;47.80;;;;;;5115898;28;20042;-67
2021/12/07 09:45:44;;;;;;;11.45;4.15;;;24.70;50.10;;;;;;5115697;28;20036;-68
2021/12/07 09:48:13;;;;;;;9.07;4.45;;;24.80;45.60;;;;;;5102272;28;20307;-68
2021/12/07 09:50:42;;;;;;;4.82;3.17;;;24.70;50.10;;;;;;5094694;28;20039;-69
2021/12/07 09:53:11;;;;;;;6.47;4.53;;;24.80;47.90;;;;;;5095150;28;20045;-66
2021/12/07 09:55:39;;;;;;;7.05;3.63;;;25.20;41.60;;;;;;5094655;28;20045;-67
2021/12/07 09:58:06;;;;;;;5.35;4.47;;;25.00;41.10;;;;;;5094928;28;20080;-67
2021/12/07 10:00:34;;;;;;;5.10;4.07;;;25.30;45.30;;;;;;5096076;28;20076;-66
2021/12/07 10:03:01;;;;;;;3.97;3.50;;;25.40;48.60;;;;;;5098957;28;20091;-65
2021/12/07 10:05:31;;;;;;;7.65;4.72;;;25.70;52.30;;;;;;5098309;28;20170;-65
2021/12/07 10:07:58;;;;;;;4.00;3.58;;;26.20;50.30;;;;;;5098711;28;20119;-67
2021/12/07 10:10:37;;;;;;;5.25;4.00;;;26.30;49.50;;;;;;5098794;28;20037;-65
2021/12/07 10:13:07;;;;;;;4.95;4.25;;;26.40;49.60;;;;;;5098877;28;20093;-65
2021/12/07 10:15:36;;;;;;;7.07;4.32;;;26.40;49.20;;;;;;5097944;28;20048;-65
2021/12/07 10:18:14;;;;;;;5.68;3.95;;;26.60;49.00;;;;;;5098490;28;20055;-66
2021/12/07 10:20:58;;;;;;;6.57;4.95;;;26.50;49.40;;;;;;5098384;28;20047;-65
2021/12/07 10:23:29;;;;;;;6.85;4.25;;;26.40;49.80;;;;;;5098469;28;20056;-68
2021/12/07 10:26:14;;;;;;;5.40;4.60;;;26.10;50.00;;;;;;5098484;28;20042;-67
2021/12/07 10:28:43;;;;;;;4.47;2.75;;;26.00;50.30;;;;;;5098423;28;20074;-66
2021/12/07 10:31:29;;;;;;;3.22;2.63;;;25.90;40.50;;;;;;5098452;28;20068;-65
2021/12/07 10:34:01;;;;;;;5.00;2.58;;;25.80;39.60;;;;;;5097959;28;20040;-65
2021/12/07 10:36:34;;;;;;;5.18;2.30;;;25.60;39.10;;;;;;5098259;28;20056;-66
2021/12/07 10:39:12;;;;;;;3.53;2.45;;;25.70;38.90;;;;;;5098471;28;20051;-66
2021/12/07 10:41:55;;;;;;;4.65;2.83;;;25.50;36.50;;;;;;5098262;28;20051;-68
2021/12/07 10:44:21;;;;;;;;;;;25.40;37.80;;;;;;5098462;28;20118;-66
2021/12/07 10:46:59;;;;;;;4.85;3.40;;;25.50;41.00;;;;;;5098086;28;19967;-67
2021/12/07 10:49:43;;;;;;;6.65;2.13;;;25.60;46.70;;;;;;5098039;28;20116;-66
2021/12/07 10:52:29;;;;;;;2.60;1.60;;;25.80;39.50;;;;;;5098242;28;20052;-67
2021/12/07 10:55:15;;;;;;;3.67;2.88;;;25.80;44.00;;;;;;5098245;28;20052;-67
2021/12/07 10:57:54;;;;;;;3.53;2.55;;;25.80;43.10;;;;;;5097707;28;20055;-67
2021/12/07 11:00:30;;;;;;;2.80;2.45;;;25.80;39.20;;;;;;5098195;28;20044;-66
2021/12/07 11:03:07;;;;;;;3.65;2.92;;;25.80;37.90;;;;;;5098164;28;20063;-67
2021/12/07 11:05:44;;;;;;;3.33;2.47;;;25.50;37.80;;;;;;5097782;28;20045;-67
2021/12/07 11:08:11;;;;;;;3.58;2.03;;;25.40;36.70;;;;;;5097511;28;20101;-67
2021/12/07 11:10:45;;;;;;;7.55;4.70;;;25.40;36.60;;;;;;5097728;28;20055;-66
2021/12/07 11:13:20;;;;;;;5.50;3.20;;;25.30;38.50;;;;;;5096662;28;20056;-67
2021/12/07 11:15:59;;;;;;;4.70;2.35;;;25.30;41.30;;;;;;5097439;28;20041;-66
2021/12/07 11:18:34;;;;;;;4.50;3.67;;;25.40;42.50;;;;;;5097456;28;20072;-67
2021/12/07 11:21:03;;;;;;;7.25;3.78;;;25.50;51.30;;;;;;5097641;28;20040;-66
2021/12/07 11:23:51;;;;;;;3.65;3.35;;;25.40;50.50;;;;;;5096493;28;20025;-64
2021/12/07 11:31:33;;;;;;;7.00;2.97;;;25.10;50.20;;;;;;5096980;28;20064;-66
2021/12/07 11:34:37;;;;;;;3.30;2.90;;;25.10;50.70;;;;;;5079899;28;20049;-67
2021/12/07 11:37:12;;;;;;;5.25;3.05;;;25.10;50.70;;;;;;5091812;28;20048;-67
2021/12/07 11:39:50;;;;;;;5.13;3.80;;;25.00;50.30;;;;;;5096991;28;20055;-67
2021/12/07 11:42:21;;;;;;;6.72;4.18;;;24.80;51.70;;;;;;5097243;28;20070;-68
2021/12/07 11:45:00;;;;;;;5.95;2.92;;;24.80;52.10;;;;;;5079575;28;20078;-68
2021/12/07 11:47:31;;;;;;;4.88;3.40;;;24.80;52.20;;;;;;5097152;28;20052;-67
2021/12/07 11:50:10;;;;;;;4.07;2.70;;;24.70;52.30;;;;;;5097020;28;20104;-67
2021/12/07 11:52:37;;;;;;;3.95;3.20;;;24.50;52.60;;;;;;5076752;28;20128;-67
2021/12/07 11:55:04;;;;;;;2.47;2.28;;;24.60;52.40;;;;;;5076904;28;20052;-67
2021/12/07 11:57:30;;;;;;;3.70;3.17;;;24.60;52.00;;;;;;5076869;28;20044;-66
2021/12/07 11:59:56;;;;;;;3.72;3.03;;;24.50;53.00;;;;;;5076590;28;20064;-67
2021/12/07 12:02:24;;;;;;;5.35;3.45;;;24.40;53.50;;;;;;5076263;28;20067;-68
2021/12/07 12:04:52;;;;;;;4.72;3.03;;;24.50;53.80;;;;;;5058054;28;20045;-67
2021/12/07 12:07:21;;;;;;;3.80;2.80;;;24.40;53.80;;;;;;5076470;28;20056;-69
2021/12/07 12:09:50;;;;;;;4.45;2.50;;;24.30;54.00;;;;;;5076572;28;20124;-69
2021/12/07 12:12:32;;;;;;;2.78;2.45;;;24.30;54.00;;;;;;5076560;28;20052;-67
2021/12/07 12:15:29;;;;;;;4.45;3.13;;;24.10;54.20;;;;;;5075818;28;20580;-69
2021/12/07 12:18:20;;;;;;;2.63;2.42;;;24.10;54.90;;;;;;5076622;28;20071;-70
2021/12/07 12:20:56;;;;;;;3.78;2.95;;;24.00;55.30;;;;;;5059017;28;20044;-69
2021/12/07 12:23:47;;;;;;;7.68;4.28;;;24.00;55.80;;;;;;5076175;28;20110;-70
2021/12/07 12:26:20;;;;;;;7.22;3.97;;;23.90;56.50;;;;;;5076477;28;20039;-69
2021/12/07 12:28:47;;;;;;;4.50;3.00;;;23.90;57.00;;;;;;5076191;28;20135;-69
2021/12/07 12:31:14;;;;;;;3.28;2.58;;;23.90;57.30;;;;;;5083049;28;20044;-69
2021/12/07 12:33:49;;;;;;;2.92;2.63;;;23.80;57.80;;;;;;5096042;28;20044;-69
2021/12/07 12:36:16;;;;;;;3.80;2.65;;;23.80;57.90;;;;;;5096384;28;20075;-68
2021/12/07 12:38:55;;;;;;;4.07;2.97;;;23.70;58.00;;;;;;5096225;28;20040;-67
2021/12/07 12:41:22;;;;;;;3.53;2.40;;;23.80;56.90;;;;;;5095960;28;20067;-68
2021/12/07 12:43:53;;;;;;;3.38;3.05;;;23.90;56.80;;;;;;5096018;28;20071;-69
2021/12/07 12:46:34;;;;;;;4.05;3.38;;;23.70;56.80;;;;;;5095988;28;20052;-69
2021/12/07 12:49:05;;;;;;;2.80;2.50;;;23.70;60.40;;;;;;5094665;28;20048;-70
2021/12/07 12:51:42;;;;;;;3.17;2.67;;;23.80;61.80;;;;;;5095614;28;20047;-70
2021/12/07 12:54:09;;;;;;;5.40;3.35;;;23.70;61.60;;;;;;5096050;28;20063;-71
2021/12/07 12:56:36;;;;;;;2.78;2.50;;;23.70;62.50;;;;;;5096082;28;20068;-68
2021/12/07 12:59:07;;;;;;;4.18;3.35;;;23.70;61.50;;;;;;5096077;28;20052;-68
2021/12/07 13:01:36;;;;;;;6.50;3.17;;;23.80;61.20;;;;;;5096318;28;20068;-68
2021/12/07 13:04:24;;;;;;;3.20;2.53;;;23.70;60.20;;;;;;5095819;28;20063;-69
2021/12/07 13:07:00;;;;;;;3.83;2.60;;;23.80;59.20;;;;;;5095165;28;20037;-69
2021/12/07 13:09:33;;;;;;;3.95;3.08;;;23.80;58.90;;;;;;5094433;28;20154;-68
2021/12/07 13:12:02;;;;;;;3.70;2.72;;;23.80;58.60;;;;;;5095497;28;20063;-68
2021/12/07 13:14:51;;;;;;;4.25;2.90;;;23.80;58.30;;;;;;5095211;28;20048;-69
2021/12/07 13:17:18;;;;;;;3.95;3.00;;;23.70;58.00;;;;;;5094971;28;20123;-69
2021/12/07 13:20:09;;;;;;;3.15;2.53;;;23.80;57.70;;;;;;5095704;28;20044;-69
2021/12/07 13:22:54;;;;;;;4.18;3.00;;;23.70;57.70;;;;;;5095791;28;20055;-69
2021/12/07 13:25:45;;;;;;;3.10;2.80;;;23.60;57.50;;;;;;5094953;28;20061;-69
2021/12/07 13:28:17;;;;;;;3.53;3.00;;;23.70;57.30;;;;;;5095712;28;20047;-69
2021/12/07 13:30:56;;;;;;;4.73;2.47;;;23.50;57.60;;;;;;5095480;28;20040;-69
2021/12/07 13:33:29;;;;;;;4.70;2.70;;;23.40;57.40;;;;;;5094938;28;20037;-68
2021/12/07 13:35:55;;;;;;;2.38;2.08;;;23.50;57.80;;;;;;5097251;28;20064;-69
2021/12/07 13:38:25;;;;;;;3.72;2.35;;;23.50;57.70;;;;;;5099392;28;20047;-69
2021/12/07 13:41:11;;;;;;;2.55;2.28;;;23.40;57.70;;;;;;5099740;28;20033;-69
2021/12/07 13:43:37;;;;;;;2.67;2.47;;;23.40;57.80;;;;;;5082207;28;20066;-69
2021/12/07 13:46:12;;;;;;;2.67;2.40;;;23.30;57.60;;;;;;5099381;28;20042;-68
2021/12/07 13:48:40;;;;;;;4.10;2.50;;;23.30;57.90;;;;;;5099633;28;20064;-69
2021/12/07 13:51:06;;;;;;;2.90;2.60;;;23.30;57.70;;;;;;5099042;28;20044;-69
2021/12/07 13:53:36;;;;;;;3.10;2.53;;;23.10;57.70;;;;;;5098582;28;20032;-69
2021/12/07 13:56:03;;;;;;;4.22;3.03;;;23.10;57.70;;;;;;5098359;28;20052;-68
2021/12/07 13:58:33;;;;;;;2.92;2.38;;;23.00;58.10;;;;;;5081784;28;20099;-69
2021/12/07 14:01:01;;;;;;;2.53;2.33;;;23.10;58.00;;;;;;5099278;28;20072;-68
2021/12/07 14:03:28;;;;;;;5.15;3.38;;;23.10;58.10;;;;;;5098890;28;20044;-69
2021/12/07 14:05:55;;;;;;;4.07;2.78;;;23.00;57.90;;;;;;5098825;28;20040;-69
2021/12/07 14:08:21;;;;;;;3.65;3.15;;;23.00;58.20;;;;;;5098814;28;20048;-69
2021/12/07 14:10:50;;;;;;;4.03;2.58;;;22.90;58.20;;;;;;5098845;28;20086;-69
2021/12/07 14:13:18;;;;;;;4.85;2.83;;;22.80;58.30;;;;;;5097680;28;20052;-69
2021/12/07 14:15:47;;;;;;;3.92;2.90;;;22.90;58.50;;;;;;5099013;28;20062;-69
2021/12/07 14:18:24;;;;;;;3.13;2.80;;;22.80;58.60;;;;;;5098925;28;20113;-69
2021/12/07 14:20:54;;;;;;;4.95;3.38;;;22.90;58.70;;;;;;5098722;28;20537;-69
2021/12/07 14:23:23;;;;;;;4.75;2.83;;;22.90;58.70;;;;;;5098847;28;20044;-70
2021/12/07 14:26:01;;;;;;;3.95;2.95;;;22.90;58.80;;;;;;5098731;28;20151;-70
2021/12/07 14:28:41;;;;;;;4.18;3.55;;;22.90;59.00;;;;;;5097874;28;20032;-69
2021/12/07 14:31:12;;;;;;;3.05;2.67;;;22.90;59.50;;;;;;5097427;28;20032;-69
2021/12/07 14:33:40;;;;;;;4.72;3.55;;;23.10;59.30;;;;;;5097664;28;20036;-70
2021/12/07 14:36:07;;;;;;;5.13;4.20;;;23.00;59.50;;;;;;5098381;28;20032;-69
2021/12/07 14:38:34;;;;;;;4.65;3.67;;;23.10;59.10;;;;;;5098282;28;20036;-70